createdAt,value
2018-07-24T00:01:28.249Z,90.50
2018-07-24T00:03:56.305Z,90.30
2018-07-24T00:06:24.790Z,90.20
2018-07-24T00:08:53.762Z,90.10
2018-07-24T00:11:23.076Z,90.30
2018-07-24T00:13:52.696Z,90.30
2018-07-24T00:16:20.630Z,90.30
2018-07-24T00:18:49.240Z,90.20
2018-07-24T00:21:17.160Z,90.40
2018-07-24T00:23:45.088Z,90.10
2018-07-24T00:26:13.625Z,90.20
2018-07-24T00:28:41.628Z,90.60
2018-07-24T00:31:10.242Z,90.40
2018-07-24T00:33:38.838Z,90.60
2018-07-24T00:36:07.988Z,90.70
2018-07-24T00:38:37.471Z,90.90
2018-07-24T00:41:06.354Z,91.10
2018-07-24T00:43:34.941Z,91.10
2018-07-24T00:46:04.408Z,91.10
2018-07-24T00:48:32.988Z,91.20
2018-07-24T00:51:00.968Z,91.80
2018-07-24T00:53:30.357Z,92.30
2018-07-24T00:55:58.955Z,92.50
2018-07-24T00:58:26.969Z,92.40
2018-07-24T01:03:23.224Z,91.90
2018-07-24T01:05:51.382Z,91.90
2018-07-24T01:08:19.626Z,91.90
2018-07-24T01:10:50.129Z,91.80
2018-07-24T01:13:19.590Z,92.00
2018-07-24T01:15:47.678Z,92.00
2018-07-24T01:20:44.236Z,92.00
2018-07-24T01:23:13.369Z,91.70
2018-07-24T01:25:41.887Z,91.70
2018-07-24T01:30:40.020Z,92.20
2018-07-24T01:33:08.495Z,92.20
2018-07-24T01:35:37.746Z,92.30
2018-07-24T01:38:07.092Z,92.20
2018-07-24T01:40:37.531Z,92.10
2018-07-24T01:43:06.079Z,92.20
2018-07-24T01:45:35.950Z,92.20
2018-07-24T01:48:05.333Z,92.20
2018-07-24T01:50:33.922Z,92.00
2018-07-24T01:53:04.112Z,91.80
2018-07-24T01:58:02.714Z,91.90
2018-07-24T02:00:30.708Z,92.00
2018-07-24T02:02:59.351Z,92.10
2018-07-24T02:07:55.412Z,92.40
2018-07-24T02:10:26.103Z,92.40
2018-07-24T02:15:24.648Z,92.80
2018-07-24T02:17:55.675Z,92.50
2018-07-24T02:20:25.328Z,92.50
2018-07-24T02:22:57.755Z,92.40
2018-07-24T02:25:31.033Z,92.50
2018-07-24T02:28:00.293Z,92.40
2018-07-24T02:30:30.175Z,92.40
2018-07-24T02:33:02.189Z,92.30
2018-07-24T02:35:34.912Z,92.40
2018-07-24T02:38:09.720Z,92.30
2018-07-24T02:45:36.946Z,92.40
2018-07-24T02:48:09.890Z,92.40
2018-07-24T02:50:40.033Z,92.30
2018-07-24T02:53:12.758Z,92.60
2018-07-24T02:58:16.571Z,92.60
2018-07-24T03:00:46.613Z,92.60
2018-07-24T03:05:49.079Z,92.70
2018-07-24T03:08:19.499Z,92.80
2018-07-24T03:13:19.166Z,92.80
2018-07-24T03:15:51.069Z,92.90
2018-07-24T03:18:21.547Z,93.20
2018-07-24T03:23:25.305Z,92.70
2018-07-24T03:25:58.972Z,92.80
2018-07-24T03:28:29.791Z,92.90
2018-07-24T03:31:01.548Z,92.70
2018-07-24T03:33:31.797Z,93.00
2018-07-24T03:36:04.282Z,93.10
2018-07-24T03:38:34.604Z,93.10
2018-07-24T03:41:04.051Z,93.20
2018-07-24T03:43:36.500Z,93.30
2018-07-24T03:48:37.132Z,93.40
2018-07-24T03:51:12.451Z,93.50
2018-07-24T03:58:46.548Z,93.40
2018-07-24T04:01:17.137Z,93.20
2018-07-24T04:03:49.401Z,93.20
2018-07-24T04:06:21.135Z,93.10
2018-07-24T04:08:52.702Z,93.10
2018-07-24T04:11:28.502Z,93.10
2018-07-24T04:14:03.503Z,93.30
2018-07-24T04:16:34.575Z,93.40
2018-07-24T04:19:04.304Z,93.60
2018-07-24T04:21:34.036Z,93.60
2018-07-24T04:24:10.915Z,93.70
2018-07-24T04:26:38.860Z,93.60
2018-07-24T04:31:34.599Z,93.60
2018-07-24T04:34:02.567Z,93.80
2018-07-24T04:36:30.557Z,94.00
2018-07-24T04:38:58.444Z,93.90
2018-07-24T04:41:26.768Z,94.10
2018-07-24T04:43:54.705Z,94.00
2018-07-24T04:46:23.269Z,94.10
2018-07-24T04:48:52.108Z,94.00
2018-07-24T04:53:48.557Z,93.70
2018-07-24T04:58:45.303Z,93.90
2018-07-24T05:01:13.341Z,94.00
2018-07-24T05:03:41.269Z,94.00
2018-07-24T05:06:09.849Z,93.90
2018-07-24T05:08:38.615Z,94.00
2018-07-24T05:16:02.674Z,93.70
2018-07-24T05:18:31.357Z,93.50
2018-07-24T05:21:00.568Z,93.50
2018-07-24T05:23:28.508Z,93.50
2018-07-24T05:25:56.548Z,93.10
2018-07-24T05:28:25.222Z,92.90
2018-07-24T05:30:53.214Z,93.00
2018-07-24T05:33:21.192Z,92.90
2018-07-24T05:35:49.736Z,92.60
2018-07-24T05:38:17.696Z,92.60
2018-07-24T05:40:45.870Z,92.60
2018-07-24T05:43:13.789Z,91.80
2018-07-24T05:45:41.710Z,91.60
2018-07-24T05:48:09.612Z,91.40
2018-07-24T05:50:37.549Z,90.90
2018-07-24T05:53:05.456Z,90.90
2018-07-24T05:55:33.374Z,90.80
2018-07-24T05:58:02.104Z,90.50
2018-07-24T06:00:30.059Z,89.80
2018-07-24T06:02:58.314Z,89.60
2018-07-24T06:05:26.930Z,89.70
2018-07-24T06:07:55.383Z,89.50
2018-07-24T06:10:23.329Z,88.80
2018-07-24T06:12:52.625Z,88.80
2018-07-24T06:15:20.570Z,88.50
2018-07-24T06:17:48.462Z,87.40
2018-07-24T06:20:17.006Z,86.70
2018-07-24T06:25:14.292Z,86.60
2018-07-24T06:27:42.803Z,87.50
2018-07-24T06:30:10.738Z,87.00
2018-07-24T06:32:39.688Z,87.20
2018-07-24T06:35:08.381Z,86.20
2018-07-24T06:37:37.625Z,86.90
2018-07-24T06:40:06.196Z,87.00
2018-07-24T06:42:35.376Z,84.90
2018-07-24T06:45:04.337Z,85.20
2018-07-24T06:47:33.521Z,85.00
2018-07-24T06:50:02.606Z,84.40
2018-07-24T06:52:30.554Z,84.60
2018-07-24T06:54:59.818Z,85.00
2018-07-24T06:57:28.321Z,84.40
2018-07-24T06:59:56.235Z,84.10
2018-07-24T07:02:24.445Z,85.10
2018-07-24T07:04:52.992Z,83.90
2018-07-24T07:07:21.564Z,84.50
2018-07-24T07:09:49.582Z,84.20
2018-07-24T07:12:18.037Z,82.00
2018-07-24T07:14:46.243Z,82.60
2018-07-24T07:17:19.705Z,81.60
2018-07-24T07:19:47.616Z,81.80
2018-07-24T07:22:15.648Z,80.80
2018-07-24T07:24:43.578Z,81.50
2018-07-24T07:29:42.674Z,79.00
2018-07-24T07:34:38.297Z,78.60
2018-07-24T07:37:06.187Z,79.80
2018-07-24T07:39:34.092Z,80.70
2018-07-24T07:42:02.024Z,78.20
2018-07-24T07:44:30.795Z,77.60
2018-07-24T07:46:58.725Z,75.60
2018-07-24T07:49:27.142Z,74.00
2018-07-24T07:51:55.077Z,75.80
2018-07-24T07:54:23.004Z,76.60
2018-07-24T07:56:51.927Z,74.70
2018-07-24T07:59:21.318Z,74.30
2018-07-24T08:01:49.871Z,73.40
2018-07-24T08:04:17.925Z,73.00
2018-07-24T08:09:14.693Z,71.10
2018-07-24T08:14:11.037Z,69.40
2018-07-24T08:16:39.637Z,68.50
2018-07-24T08:19:07.569Z,67.20
2018-07-24T08:21:35.686Z,68.80
2018-07-24T08:24:03.762Z,67.50
2018-07-24T08:26:33.299Z,68.10
2018-07-24T08:29:01.213Z,67.60
2018-07-24T08:33:57.364Z,65.90
2018-07-24T08:36:25.368Z,62.70
2018-07-24T08:38:53.327Z,63.90
2018-07-24T08:41:21.259Z,65.10
2018-07-24T08:43:49.280Z,63.90
2018-07-24T08:46:18.971Z,65.00
2018-07-24T08:48:46.892Z,64.40
2018-07-24T08:51:15.463Z,66.60
2018-07-24T08:56:11.932Z,64.20
2018-07-24T09:01:07.859Z,63.10
2018-07-24T09:06:03.635Z,61.50
2018-07-24T09:08:31.573Z,65.80
2018-07-24T09:13:27.892Z,62.50
2018-07-24T09:15:55.804Z,64.20
2018-07-24T09:18:23.714Z,60.10
2018-07-24T09:20:51.690Z,59.80
2018-07-24T09:23:19.627Z,60.60
2018-07-24T09:25:47.569Z,59.80
2018-07-24T09:30:44.134Z,60.80
2018-07-24T09:35:39.828Z,59.10
2018-07-24T09:38:07.782Z,61.10
2018-07-24T09:40:35.821Z,60.30
2018-07-24T09:45:31.605Z,62.00
2018-07-24T09:47:59.605Z,61.70
2018-07-24T09:50:27.905Z,59.40
2018-07-24T09:52:56.387Z,58.40
2018-07-24T09:55:24.980Z,58.40
2018-07-24T09:57:53.660Z,56.90
2018-07-24T10:00:27.068Z,57.70
2018-07-24T10:02:55.590Z,56.90
2018-07-24T10:05:23.781Z,56.00
2018-07-24T10:07:52.068Z,59.30
2018-07-24T10:12:48.150Z,59.70
2018-07-24T10:15:16.074Z,62.20
2018-07-24T10:17:44.539Z,60.20
2018-07-24T10:20:12.505Z,61.90
2018-07-24T10:22:44.881Z,61.80
2018-07-24T10:27:44.352Z,61.10
2018-07-24T10:30:12.215Z,59.20
2018-07-24T10:40:13.002Z,57.10
2018-07-24T10:45:09.850Z,57.10
2018-07-24T10:50:05.797Z,57.70
2018-07-24T10:52:33.695Z,57.80
2018-07-24T10:55:02.378Z,54.40
2018-07-24T10:57:30.970Z,55.60
2018-07-24T10:59:59.452Z,54.90
2018-07-24T11:02:27.713Z,53.80
2018-07-24T11:04:57.276Z,56.00
2018-07-24T11:07:26.196Z,56.30
2018-07-24T11:09:54.099Z,55.90
2018-07-24T11:12:22.531Z,56.70
2018-07-24T11:14:51.296Z,58.20
2018-07-24T11:19:47.566Z,56.50
2018-07-24T11:22:15.576Z,53.50
2018-07-24T11:27:11.217Z,53.60
2018-07-24T11:29:39.094Z,57.30
2018-07-24T11:32:07.945Z,56.70
2018-07-24T11:34:35.917Z,59.60
2018-07-24T11:37:04.308Z,58.20
2018-07-24T11:39:32.315Z,58.50
2018-07-24T11:42:00.624Z,57.70
2018-07-24T11:44:28.580Z,57.70
2018-07-24T11:46:56.521Z,58.40
2018-07-24T11:49:24.434Z,58.00
2018-07-24T11:51:52.436Z,56.50
2018-07-24T11:56:48.744Z,55.30
2018-07-24T12:04:14.875Z,52.00
2018-07-24T12:06:43.813Z,54.00
2018-07-24T12:09:12.567Z,54.40
2018-07-24T12:11:41.122Z,55.30
2018-07-24T12:14:09.056Z,55.20
2018-07-24T12:16:38.035Z,54.90
2018-07-24T12:19:05.979Z,55.60
2018-07-24T12:26:59.369Z,55.40
2018-07-24T18:07:49.479Z,49.70
2018-07-24T18:12:45.228Z,50.70
2018-07-24T18:15:13.142Z,51.80
2018-07-24T18:17:41.103Z,53.20
2018-07-24T18:20:10.260Z,51.90
2018-07-24T18:22:38.198Z,53.00
2018-07-24T18:25:06.202Z,52.30
2018-07-24T18:27:34.276Z,51.60
2018-07-24T18:32:30.701Z,53.00
2018-07-24T18:34:58.617Z,53.30
2018-07-24T18:37:26.510Z,53.20
2018-07-24T18:39:54.861Z,53.30
2018-07-24T18:42:23.753Z,54.50
2018-07-24T18:44:52.438Z,56.00
2018-07-24T18:47:21.640Z,56.30
2018-07-24T18:49:49.618Z,56.50
2018-07-24T18:52:17.605Z,56.60
2018-07-24T18:54:45.468Z,56.80
2018-07-24T18:57:13.439Z,57.40
2018-07-24T18:59:42.341Z,56.80
2018-07-24T19:02:10.846Z,56.30
2018-07-24T19:07:07.009Z,58.10
2018-07-24T19:12:03.920Z,57.80
2018-07-24T19:14:32.724Z,58.40
2018-07-24T19:17:00.597Z,62.00
2018-07-24T19:19:29.543Z,63.00
2018-07-24T19:21:57.522Z,64.00
2018-07-24T19:24:26.092Z,65.90
2018-07-24T19:31:50.417Z,66.40
2018-07-24T19:34:18.723Z,67.00
2018-07-24T19:36:46.641Z,65.90
2018-07-24T19:41:42.295Z,66.00
2018-07-24T19:44:10.594Z,66.40
2018-07-24T19:46:38.485Z,67.30
2018-07-24T19:49:06.899Z,66.80
2018-07-24T19:51:34.788Z,67.30
2018-07-24T19:54:02.971Z,67.80
2018-07-24T19:56:31.543Z,68.00
2018-07-24T19:58:59.953Z,67.50
2018-07-24T20:01:29.526Z,67.60
2018-07-24T20:03:59.240Z,67.90
2018-07-24T20:06:40.154Z,68.50
2018-07-24T20:09:10.113Z,69.30
2018-07-24T20:11:38.123Z,69.40
2018-07-24T20:14:06.333Z,68.60
2018-07-24T20:19:02.185Z,71.00
2018-07-24T20:26:26.006Z,71.30
2018-07-24T20:28:53.936Z,71.30
2018-07-24T20:31:26.763Z,71.30
2018-07-24T20:33:57.813Z,71.20
2018-07-24T20:36:25.842Z,71.30
2018-07-24T20:38:54.476Z,71.90
2018-07-24T20:41:23.075Z,73.30
2018-07-24T20:43:50.981Z,73.30
2018-07-24T20:46:19.238Z,73.10
2018-07-24T20:48:47.152Z,73.70
2018-07-24T20:51:15.125Z,74.50
2018-07-24T20:53:42.973Z,74.40
2018-07-24T20:56:10.890Z,74.90
2018-07-24T20:58:38.859Z,75.50
2018-07-24T21:01:06.746Z,76.30
2018-07-24T21:03:34.708Z,76.90
2018-07-24T21:06:02.642Z,77.50
2018-07-24T21:19:59.068Z,77.10
2018-07-24T21:22:27.130Z,77.80
2018-07-24T21:24:55.039Z,78.10
2018-07-24T21:27:22.994Z,78.40
2018-07-24T21:35:11.983Z,78.20
2018-07-24T21:37:40.809Z,78.20
2018-07-24T21:40:09.353Z,79.00
2018-07-24T21:42:37.923Z,79.60
2018-07-24T21:47:33.568Z,80.80
2018-07-24T21:50:01.473Z,81.20
2018-07-24T21:52:35.224Z,82.40
2018-07-24T21:55:03.213Z,83.00
2018-07-24T21:57:31.081Z,82.70
2018-07-24T21:59:59.016Z,82.90
2018-07-24T22:04:54.726Z,83.50
2018-07-24T22:07:23.028Z,83.90
2018-07-24T22:09:50.942Z,84.30
2018-07-24T22:12:19.005Z,84.80
2018-07-24T22:14:46.905Z,84.40
2018-07-24T22:17:14.784Z,84.30
2018-07-24T22:19:43.383Z,84.10
2018-07-24T22:27:08.863Z,85.20
2018-07-24T22:29:38.112Z,85.50
2018-07-24T22:32:06.069Z,85.50
2018-07-24T22:34:33.931Z,86.20
2018-07-24T22:42:52.355Z,85.20
2018-07-24T22:48:20.962Z,86.10
2018-07-24T22:50:55.114Z,86.20
2018-07-24T22:53:23.243Z,86.40
2018-07-24T22:55:51.801Z,86.30
2018-07-24T22:58:19.800Z,86.50
2018-07-24T23:00:47.767Z,86.50
2018-07-24T23:03:16.272Z,86.60
2018-07-24T23:05:44.524Z,86.60
2018-07-24T23:08:12.943Z,86.90
2018-07-24T23:11:01.221Z,87.20
2018-07-24T23:13:35.955Z,86.90
2018-07-24T23:16:04.737Z,86.80
2018-07-24T23:18:33.232Z,87.50
2018-07-24T23:21:01.209Z,87.60
2018-07-24T23:23:29.182Z,87.30
2018-07-24T23:25:57.131Z,87.20
2018-07-24T23:28:25.073Z,87.00
2018-07-24T23:30:53.965Z,87.00
2018-07-24T23:33:21.890Z,87.00
2018-07-24T23:38:50.386Z,86.90
2018-07-24T23:54:43.346Z,88.20
2018-07-24T23:57:11.821Z,88.40
2018-07-24T23:59:40.530Z,88.60
